Aeroporto :
LOGIN :

Iscrizione | Disclaimer

   EN    FR    IT 

 










Sommario :    VFR   VFR Marginale   IFR   IFR Intensivo   IFR Molto Intensivo
Visibilità : 
Base nubi : 
>= 8 km
>= 3000ft
5 / 8 km
1000 / 3000 ft
1500m / 5 km
500 / 1000 ft
800 / 1500m
200 / 500 ft
< 800m
< 200 ft
Simboli :   Temporali  Nebbia  Neve Forte  Precipitazioni Forti  Vento > 20 kt
SIGMETs :   Varie  Temporali  Ghiacco  Turbolenza  Onda orograficha  Ceneri Vulcaniche






- Altitudine del aeroporto : 506 ft
- Codice IATA : GOT


ESGG - Landvetter

ULTIMO METAR :
  • 201220Z 07004KT 9999 OVC015 06/04 Q1021 R03/29//95

METARs OBSOLETI :
  • 201150Z 11005KT 080V150 9999 BKN012 05/04 Q1022 R21/29//95
  • 201120Z 11005KT 080V170 9999 SCT008 BKN012 05/04 Q1022 R21/29//95
  • 201050Z 12004KT 9999 BKN010 05/04 Q1022 R21/29//95
  • 201020Z 14006KT 090V170 9999 BKN006 05/04 Q1022 R21/29//95
  • 200950Z 12008KT 8000 BR OVC005 06/05 Q1022 R21/29//95

TAF TAF ESGG
Valido dal 20 a 12 ore il 21 a 12 ore UTC


201130Z 2012/2112 12004KT 9999 BKN009
PROB40 2012/2018 BKN010
TEMPO 2018/2024 4000 RADZ
TEMPO 2100/2106 2500 BR BKN004



MetMap, La meteo Aeronautica in un colpo d'occhio ! - Copyright ORBIFLY Dicembre 2007 - Disclaimer

ORBIFLY MET'MAP TEAM :

Programmazione e sviluppo : Alexandra Zaïnal
Concezione e sviluppo : Baudouin d'Aumeries
Co-Programmazione e sviluppo : Marc-Olivier Méhu
Supporto tecnico e logistico : Manuel Goepfert
Aiuto per la traduzione : Arnaldo La Scala

Contatto : metmap@orbifly.com




FONTI E CREDITI :

   NOAA